sensor_id;sensor_type;location;lat;lon;timestamp;pressure;altitude;pressure_sealevel;temperature;humidity
72336;BME280;65062;48.446;8.834;2023-02-20T00:00:47;98664.72;;;6.77;81.68
72336;BME280;65062;48.446;8.834;2023-02-20T00:03:47;98660.03;;;6.71;81.88
72336;BME280;65062;48.446;8.834;2023-02-20T00:06:47;98661.31;;;6.86;81.93
72336;BME280;65062;48.446;8.834;2023-02-20T00:09:48;98651.16;;;6.73;81.51
72336;BME280;65062;48.446;8.834;2023-02-20T00:12:49;98651.56;;;6.69;81.57
72336;BME280;65062;48.446;8.834;2023-02-20T00:15:50;98652.41;;;6.69;81.78
72336;BME280;65062;48.446;8.834;2023-02-20T00:18:50;98662.94;;;6.68;82.17
72336;BME280;65062;48.446;8.834;2023-02-20T00:21:50;98669.38;;;6.83;81.25
72336;BME280;65062;48.446;8.834;2023-02-20T00:24:51;98661.44;;;6.75;81.43
72336;BME280;65062;48.446;8.834;2023-02-20T00:27:52;98657.59;;;6.69;81.06
72336;BME280;65062;48.446;8.834;2023-02-20T00:30:52;98666.47;;;6.67;81.93
72336;BME280;65062;48.446;8.834;2023-02-20T00:33:52;98662.81;;;6.69;81.53
72336;BME280;65062;48.446;8.834;2023-02-20T00:36:53;98658.25;;;6.62;81.71
72336;BME280;65062;48.446;8.834;2023-02-20T00:39:54;98645.00;;;6.65;81.59
72336;BME280;65062;48.446;8.834;2023-02-20T00:42:54;98644.69;;;6.58;81.89
72336;BME280;65062;48.446;8.834;2023-02-20T00:45:54;98645.91;;;6.54;81.55
72336;BME280;65062;48.446;8.834;2023-02-20T00:48:55;98642.94;;;6.68;81.63
72336;BME280;65062;48.446;8.834;2023-02-20T00:51:55;98648.63;;;6.92;78.73
72336;BME280;65062;48.446;8.834;2023-02-20T00:54:55;98646.53;;;6.96;78.87
72336;BME280;65062;48.446;8.834;2023-02-20T00:57:56;98661.34;;;7.05;77.35
72336;BME280;65062;48.446;8.834;2023-02-20T01:00:56;98663.69;;;7.08;77.36
72336;BME280;65062;48.446;8.834;2023-02-20T01:03:56;98655.44;;;6.93;77.92
72336;BME280;65062;48.446;8.834;2023-02-20T01:06:57;98667.94;;;6.90;79.07
72336;BME280;65062;48.446;8.834;2023-02-20T01:09:57;98669.66;;;6.80;79.69
72336;BME280;65062;48.446;8.834;2023-02-20T01:12:57;98673.66;;;6.84;79.38
72336;BME280;65062;48.446;8.834;2023-02-20T01:15:58;98673.75;;;6.73;79.57
72336;BME280;65062;48.446;8.834;2023-02-20T01:18:58;98675.50;;;6.63;80.16
72336;BME280;65062;48.446;8.834;2023-02-20T01:21:58;98682.06;;;6.57;80.43
72336;BME280;65062;48.446;8.834;2023-02-20T01:24:59;98666.31;;;6.59;80.42
72336;BME280;65062;48.446;8.834;2023-02-20T01:27:59;98674.53;;;6.54;80.41
72336;BME280;65062;48.446;8.834;2023-02-20T01:31:00;98661.66;;;6.53;80.36
72336;BME280;65062;48.446;8.834;2023-02-20T01:34:00;98661.78;;;6.51;80.60
72336;BME280;65062;48.446;8.834;2023-02-20T01:37:00;98658.88;;;6.44;80.48
72336;BME280;65062;48.446;8.834;2023-02-20T01:40:02;98659.38;;;6.29;80.67
72336;BME280;65062;48.446;8.834;2023-02-20T01:43:03;98661.03;;;6.09;81.99
72336;BME280;65062;48.446;8.834;2023-02-20T01:50:05;98661.38;;;5.95;82.25
72336;BME280;65062;48.446;8.834;2023-02-20T01:53:03;98659.47;;;5.97;81.98
72336;BME280;65062;48.446;8.834;2023-02-20T01:56:08;98662.63;;;6.01;81.38
72336;BME280;65062;48.446;8.834;2023-02-20T01:59:10;98655.75;;;5.90;81.90
72336;BME280;65062;48.446;8.834;2023-02-20T02:02:11;98649.44;;;5.93;81.41
72336;BME280;65062;48.446;8.834;2023-02-20T02:05:12;98648.50;;;5.73;81.97
72336;BME280;65062;48.446;8.834;2023-02-20T02:08:14;98648.25;;;5.76;82.49
72336;BME280;65062;48.446;8.834;2023-02-20T02:11:17;98651.28;;;5.61;82.31
72336;BME280;65062;48.446;8.834;2023-02-20T02:14:18;98642.25;;;5.44;82.18
72336;BME280;65062;48.446;8.834;2023-02-20T02:31:35;98621.69;;;5.73;81.13
72336;BME280;65062;48.446;8.834;2023-02-20T02:41:43;98622.28;;;5.76;79.58
72336;BME280;65062;48.446;8.834;2023-02-20T02:44:56;98613.06;;;5.83;79.64
72336;BME280;65062;48.446;8.834;2023-02-20T02:48:09;98619.59;;;5.67;80.21
72336;BME280;65062;48.446;8.834;2023-02-20T02:51:23;98623.59;;;5.91;79.53
72336;BME280;65062;48.446;8.834;2023-02-20T02:54:27;98623.72;;;5.69;80.04
72336;BME280;65062;48.446;8.834;2023-02-20T02:57:27;98613.53;;;5.57;80.00
72336;BME280;65062;48.446;8.834;2023-02-20T03:03:33;98610.94;;;5.05;80.66
72336;BME280;65062;48.446;8.834;2023-02-20T03:06:37;98620.75;;;5.01;81.58
72336;BME280;65062;48.446;8.834;2023-02-20T03:10:08;98613.84;;;4.80;82.63
72336;BME280;65062;48.446;8.834;2023-02-20T03:13:11;98621.75;;;4.89;83.07
72336;BME280;65062;48.446;8.834;2023-02-20T03:16:13;98621.56;;;4.70;81.08
72336;BME280;65062;48.446;8.834;2023-02-20T03:19:18;98619.13;;;4.47;82.56
72336;BME280;65062;48.446;8.834;2023-02-20T03:22:28;98617.13;;;4.28;82.71
72336;BME280;65062;48.446;8.834;2023-02-20T03:25:30;98614.31;;;4.09;83.13
72336;BME280;65062;48.446;8.834;2023-02-20T03:28:43;98615.94;;;3.77;83.62
72336;BME280;65062;48.446;8.834;2023-02-20T03:31:49;98619.66;;;3.51;84.65
72336;BME280;65062;48.446;8.834;2023-02-20T03:35:11;98612.56;;;3.31;85.43
72336;BME280;65062;48.446;8.834;2023-02-20T03:38:34;98601.19;;;3.10;84.54
72336;BME280;65062;48.446;8.834;2023-02-20T03:41:55;98605.22;;;2.90;85.35
72336;BME280;65062;48.446;8.834;2023-02-20T03:45:17;98607.97;;;2.76;85.94
72336;BME280;65062;48.446;8.834;2023-02-20T03:48:41;98606.53;;;2.72;86.61
72336;BME280;65062;48.446;8.834;2023-02-20T03:51:42;98600.66;;;2.70;87.73
72336;BME280;65062;48.446;8.834;2023-02-20T03:54:43;98609.06;;;2.61;85.99
72336;BME280;65062;48.446;8.834;2023-02-20T03:57:48;98607.66;;;2.57;87.43
72336;BME280;65062;48.446;8.834;2023-02-20T04:00:51;98600.22;;;2.53;86.73
72336;BME280;65062;48.446;8.834;2023-02-20T04:03:55;98599.38;;;2.52;86.52
72336;BME280;65062;48.446;8.834;2023-02-20T04:06:57;98599.34;;;2.29;86.92
72336;BME280;65062;48.446;8.834;2023-02-20T04:10:01;98605.66;;;2.25;86.24
72336;BME280;65062;48.446;8.834;2023-02-20T04:13:04;98607.34;;;2.00;87.46
72336;BME280;65062;48.446;8.834;2023-02-20T04:16:06;98607.03;;;2.17;87.47
72336;BME280;65062;48.446;8.834;2023-02-20T04:19:07;98590.44;;;1.96;87.39
72336;BME280;65062;48.446;8.834;2023-02-20T04:22:11;98593.00;;;1.84;87.64
72336;BME280;65062;48.446;8.834;2023-02-20T04:28:38;98588.38;;;1.64;89.58
72336;BME280;65062;48.446;8.834;2023-02-20T04:31:38;98586.22;;;1.70;88.41
72336;BME280;65062;48.446;8.834;2023-02-20T04:34:39;98598.72;;;1.51;87.95
72336;BME280;65062;48.446;8.834;2023-02-20T04:37:39;98592.94;;;1.48;88.59
72336;BME280;65062;48.446;8.834;2023-02-20T04:40:39;98598.91;;;1.48;88.99
72336;BME280;65062;48.446;8.834;2023-02-20T04:43:40;98596.84;;;1.41;89.59
72336;BME280;65062;48.446;8.834;2023-02-20T04:46:40;98597.25;;;1.35;90.09
72336;BME280;65062;48.446;8.834;2023-02-20T04:49:41;98590.56;;;1.32;90.42
72336;BME280;65062;48.446;8.834;2023-02-20T04:52:42;98586.41;;;1.55;91.40
72336;BME280;65062;48.446;8.834;2023-02-20T04:55:42;98581.19;;;1.69;91.91
72336;BME280;65062;48.446;8.834;2023-02-20T04:58:46;98582.59;;;1.73;91.58
72336;BME280;65062;48.446;8.834;2023-02-20T05:01:46;98574.34;;;1.80;91.61
72336;BME280;65062;48.446;8.834;2023-02-20T05:04:51;98590.03;;;1.77;91.92
72336;BME280;65062;48.446;8.834;2023-02-20T05:07:56;98586.84;;;1.74;91.93
72336;BME280;65062;48.446;8.834;2023-02-20T05:10:57;98585.19;;;1.73;91.75
72336;BME280;65062;48.446;8.834;2023-02-20T05:13:57;98593.44;;;1.65;91.58
72336;BME280;65062;48.446;8.834;2023-02-20T05:16:58;98586.44;;;1.67;91.51
72336;BME280;65062;48.446;8.834;2023-02-20T05:19:58;98580.47;;;1.54;90.85
72336;BME280;65062;48.446;8.834;2023-02-20T05:22:58;98584.34;;;1.47;91.60
72336;BME280;65062;48.446;8.834;2023-02-20T05:25:59;98584.16;;;1.50;91.63
72336;BME280;65062;48.446;8.834;2023-02-20T05:28:59;98585.94;;;1.50;91.86
72336;BME280;65062;48.446;8.834;2023-02-20T05:31:59;98589.81;;;1.43;91.23
72336;BME280;65062;48.446;8.834;2023-02-20T05:35:00;98588.28;;;1.40;91.76
72336;BME280;65062;48.446;8.834;2023-02-20T05:38:00;98594.78;;;1.46;91.65
72336;BME280;65062;48.446;8.834;2023-02-20T05:41:01;98589.72;;;1.32;91.68
72336;BME280;65062;48.446;8.834;2023-02-20T05:44:01;98593.34;;;1.29;91.24
72336;BME280;65062;48.446;8.834;2023-02-20T05:47:02;98589.28;;;1.25;91.75
72336;BME280;65062;48.446;8.834;2023-02-20T05:50:03;98589.47;;;1.22;91.99
72336;BME280;65062;48.446;8.834;2023-02-20T05:53:04;98592.59;;;1.27;91.28
72336;BME280;65062;48.446;8.834;2023-02-20T05:56:05;98589.97;;;1.15;91.07
72336;BME280;65062;48.446;8.834;2023-02-20T05:59:05;98579.47;;;1.05;90.63
72336;BME280;65062;48.446;8.834;2023-02-20T06:02:05;98583.56;;;0.95;91.36
72336;BME280;65062;48.446;8.834;2023-02-20T06:05:06;98577.38;;;0.85;91.32
72336;BME280;65062;48.446;8.834;2023-02-20T06:08:07;98585.00;;;0.87;91.53
72336;BME280;65062;48.446;8.834;2023-02-20T06:11:09;98580.25;;;0.93;91.87
72336;BME280;65062;48.446;8.834;2023-02-20T06:14:09;98578.53;;;0.94;91.54
72336;BME280;65062;48.446;8.834;2023-02-20T06:17:10;98570.13;;;0.78;91.42
72336;BME280;65062;48.446;8.834;2023-02-20T06:20:10;98580.91;;;0.70;91.12
72336;BME280;65062;48.446;8.834;2023-02-20T06:23:10;98588.94;;;0.66;91.35
72336;BME280;65062;48.446;8.834;2023-02-20T06:26:11;98583.22;;;0.87;91.65
72336;BME280;65062;48.446;8.834;2023-02-20T06:29:13;98590.97;;;0.87;92.10
72336;BME280;65062;48.446;8.834;2023-02-20T06:32:14;98596.94;;;0.88;91.91
72336;BME280;65062;48.446;8.834;2023-02-20T06:35:15;98598.28;;;0.81;92.02
72336;BME280;65062;48.446;8.834;2023-02-20T06:38:15;98595.59;;;0.82;92.28
72336;BME280;65062;48.446;8.834;2023-02-20T06:41:16;98602.81;;;0.90;92.70
72336;BME280;65062;48.446;8.834;2023-02-20T06:44:16;98603.41;;;1.07;92.63
72336;BME280;65062;48.446;8.834;2023-02-20T06:47:17;98603.19;;;1.10;92.43
72336;BME280;65062;48.446;8.834;2023-02-20T06:50:17;98610.00;;;1.11;91.86
72336;BME280;65062;48.446;8.834;2023-02-20T06:53:18;98597.53;;;1.18;91.74
72336;BME280;65062;48.446;8.834;2023-02-20T06:56:21;98597.13;;;1.24;91.73
72336;BME280;65062;48.446;8.834;2023-02-20T06:59:22;98596.22;;;1.25;91.68
72336;BME280;65062;48.446;8.834;2023-02-20T07:02:23;98606.22;;;1.29;91.53
72336;BME280;65062;48.446;8.834;2023-02-20T07:05:23;98609.13;;;1.50;90.94
72336;BME280;65062;48.446;8.834;2023-02-20T07:08:23;98616.47;;;1.56;91.24
72336;BME280;65062;48.446;8.834;2023-02-20T07:11:24;98614.59;;;1.58;91.33
72336;BME280;65062;48.446;8.834;2023-02-20T07:14:24;98618.00;;;1.71;90.94
72336;BME280;65062;48.446;8.834;2023-02-20T07:17:24;98621.09;;;1.76;90.44
72336;BME280;65062;48.446;8.834;2023-02-20T07:20:25;98627.31;;;1.73;90.35
72336;BME280;65062;48.446;8.834;2023-02-20T07:23:25;98613.75;;;1.82;90.78
72336;BME280;65062;48.446;8.834;2023-02-20T07:26:27;98624.50;;;1.89;90.49
72336;BME280;65062;48.446;8.834;2023-02-20T07:29:28;98616.13;;;1.85;90.11
72336;BME280;65062;48.446;8.834;2023-02-20T07:32:28;98619.25;;;1.90;90.50
72336;BME280;65062;48.446;8.834;2023-02-20T07:35:29;98624.09;;;1.95;90.27
72336;BME280;65062;48.446;8.834;2023-02-20T07:38:29;98619.22;;;2.03;89.69
72336;BME280;65062;48.446;8.834;2023-02-20T07:41:30;98626.38;;;1.99;89.88
72336;BME280;65062;48.446;8.834;2023-02-20T07:44:36;98623.16;;;2.08;89.56
72336;BME280;65062;48.446;8.834;2023-02-20T07:47:36;98626.66;;;2.20;89.73
72336;BME280;65062;48.446;8.834;2023-02-20T07:50:37;98623.84;;;2.23;90.16
72336;BME280;65062;48.446;8.834;2023-02-20T07:53:37;98613.91;;;2.30;90.26
72336;BME280;65062;48.446;8.834;2023-02-20T07:56:39;98616.69;;;2.39;90.10
72336;BME280;65062;48.446;8.834;2023-02-20T07:59:40;98623.78;;;2.48;90.34
72336;BME280;65062;48.446;8.834;2023-02-20T08:02:41;98618.19;;;2.54;90.14
72336;BME280;65062;48.446;8.834;2023-02-20T08:05:41;98615.22;;;2.71;90.04
72336;BME280;65062;48.446;8.834;2023-02-20T08:08:42;98613.75;;;2.80;90.19
72336;BME280;65062;48.446;8.834;2023-02-20T08:11:42;98613.09;;;2.89;89.97
72336;BME280;65062;48.446;8.834;2023-02-20T08:14:42;98616.53;;;3.00;90.18
72336;BME280;65062;48.446;8.834;2023-02-20T08:17:43;98596.50;;;3.15;90.03
72336;BME280;65062;48.446;8.834;2023-02-20T08:20:44;98592.44;;;3.34;89.96
72336;BME280;65062;48.446;8.834;2023-02-20T08:23:44;98602.22;;;3.42;90.04
72336;BME280;65062;48.446;8.834;2023-02-20T08:26:45;98586.75;;;3.64;89.13
72336;BME280;65062;48.446;8.834;2023-02-20T08:29:46;98591.72;;;3.78;89.17
72336;BME280;65062;48.446;8.834;2023-02-20T08:32:46;98594.28;;;3.89;88.47
72336;BME280;65062;48.446;8.834;2023-02-20T08:35:47;98580.53;;;3.99;89.17
72336;BME280;65062;48.446;8.834;2023-02-20T08:38:50;98575.09;;;4.13;87.77
72336;BME280;65062;48.446;8.834;2023-02-20T08:41:50;98573.78;;;4.30;88.51
72336;BME280;65062;48.446;8.834;2023-02-20T08:44:51;98576.56;;;4.60;86.59
72336;BME280;65062;48.446;8.834;2023-02-20T08:47:55;98571.19;;;4.84;85.50
72336;BME280;65062;48.446;8.834;2023-02-20T08:50:58;98572.16;;;5.03;85.06
72336;BME280;65062;48.446;8.834;2023-02-20T08:53:58;98562.97;;;5.31;83.18
72336;BME280;65062;48.446;8.834;2023-02-20T08:56:59;98556.41;;;5.57;81.54
72336;BME280;65062;48.446;8.834;2023-02-20T08:59:59;98557.47;;;6.05;77.93
72336;BME280;65062;48.446;8.834;2023-02-20T09:03:00;98558.59;;;6.12;78.21
72336;BME280;65062;48.446;8.834;2023-02-20T09:06:00;98552.13;;;6.36;77.74
72336;BME280;65062;48.446;8.834;2023-02-20T09:09:00;98540.81;;;6.66;75.21
72336;BME280;65062;48.446;8.834;2023-02-20T09:12:01;98537.97;;;6.88;73.47
72336;BME280;65062;48.446;8.834;2023-02-20T09:15:02;98544.78;;;7.27;72.99
72336;BME280;65062;48.446;8.834;2023-02-20T09:18:03;98543.00;;;7.74;70.35
72336;BME280;65062;48.446;8.834;2023-02-20T09:21:08;98545.31;;;8.23;66.04
72336;BME280;65062;48.446;8.834;2023-02-20T09:24:09;98547.09;;;8.49;64.33
72336;BME280;65062;48.446;8.834;2023-02-20T09:27:09;98545.53;;;8.57;64.58
72336;BME280;65062;48.446;8.834;2023-02-20T09:30:14;98538.25;;;8.60;64.32
72336;BME280;65062;48.446;8.834;2023-02-20T09:33:16;98540.47;;;8.73;64.63
72336;BME280;65062;48.446;8.834;2023-02-20T09:36:16;98530.13;;;8.98;64.56
72336;BME280;65062;48.446;8.834;2023-02-20T09:39:17;98528.47;;;9.15;62.98
72336;BME280;65062;48.446;8.834;2023-02-20T09:46:18;98528.88;;;9.45;60.66
72336;BME280;65062;48.446;8.834;2023-02-20T09:49:29;98526.91;;;9.47;60.10
72336;BME280;65062;48.446;8.834;2023-02-20T09:52:35;98516.84;;;9.60;59.52
72336;BME280;65062;48.446;8.834;2023-02-20T09:55:40;98521.78;;;9.89;60.40
72336;BME280;65062;48.446;8.834;2023-02-20T09:58:44;98522.91;;;9.86;58.88
72336;BME280;65062;48.446;8.834;2023-02-20T10:02:00;98516.38;;;9.90;59.00
72336;BME280;65062;48.446;8.834;2023-02-20T10:05:20;98509.75;;;10.04;59.24
72336;BME280;65062;48.446;8.834;2023-02-20T10:08:21;98512.56;;;10.10;58.52
72336;BME280;65062;48.446;8.834;2023-02-20T10:11:33;98505.13;;;10.23;57.67
72336;BME280;65062;48.446;8.834;2023-02-20T10:21:15;98495.75;;;10.71;58.54
72336;BME280;65062;48.446;8.834;2023-02-20T10:24:28;98503.78;;;10.93;54.84
72336;BME280;65062;48.446;8.834;2023-02-20T10:34:05;98501.81;;;11.27;54.22
72336;BME280;65062;48.446;8.834;2023-02-20T10:37:20;98491.31;;;11.43;53.78
72336;BME280;65062;48.446;8.834;2023-02-20T10:40:31;98476.53;;;11.66;53.29
72336;BME280;65062;48.446;8.834;2023-02-20T10:43:34;98476.53;;;11.66;52.80
72336;BME280;65062;48.446;8.834;2023-02-20T10:50:26;98476.97;;;11.94;49.50
72336;BME280;65062;48.446;8.834;2023-02-20T10:54:03;98489.00;;;12.19;50.85
72336;BME280;65062;48.446;8.834;2023-02-20T10:57:37;98476.81;;;12.26;50.35
72336;BME280;65062;48.446;8.834;2023-02-20T11:00:39;98474.03;;;12.50;50.45
72336;BME280;65062;48.446;8.834;2023-02-20T11:04:01;98470.09;;;12.54;50.35
72336;BME280;65062;48.446;8.834;2023-02-20T11:07:08;98473.69;;;12.53;48.41
72336;BME280;65062;48.446;8.834;2023-02-20T11:10:09;98474.59;;;12.68;48.51
72336;BME280;65062;48.446;8.834;2023-02-20T11:13:14;98465.91;;;12.68;50.35
72336;BME280;65062;48.446;8.834;2023-02-20T11:16:23;98460.00;;;12.88;48.43
72336;BME280;65062;48.446;8.834;2023-02-20T11:19:31;98453.47;;;13.07;48.45
72336;BME280;65062;48.446;8.834;2023-02-20T11:22:41;98453.31;;;13.23;48.17
72336;BME280;65062;48.446;8.834;2023-02-20T11:25:42;98432.13;;;13.53;48.16
72336;BME280;65062;48.446;8.834;2023-02-20T11:28:43;98429.44;;;13.61;45.30
72336;BME280;65062;48.446;8.834;2023-02-20T11:31:43;98434.50;;;13.48;45.38
72336;BME280;65062;48.446;8.834;2023-02-20T11:34:46;98437.56;;;13.66;45.25
72336;BME280;65062;48.446;8.834;2023-02-20T11:38:15;98425.91;;;14.19;44.88
72336;BME280;65062;48.446;8.834;2023-02-20T11:41:25;98431.06;;;14.84;42.00
72336;BME280;65062;48.446;8.834;2023-02-20T11:44:26;98415.03;;;16.75;40.21
72336;BME280;65062;48.446;8.834;2023-02-20T11:47:27;98413.81;;;18.19;36.29
72336;BME280;65062;48.446;8.834;2023-02-20T11:50:31;98402.16;;;19.99;32.65
72336;BME280;65062;48.446;8.834;2023-02-20T11:53:37;98397.81;;;20.52;30.72
72336;BME280;65062;48.446;8.834;2023-02-20T11:56:57;98398.59;;;21.12;28.73
72336;BME280;65062;48.446;8.834;2023-02-20T12:00:11;98400.69;;;22.18;27.96
72336;BME280;65062;48.446;8.834;2023-02-20T12:03:21;98393.81;;;21.71;28.03
72336;BME280;65062;48.446;8.834;2023-02-20T12:06:40;98392.44;;;22.59;27.17
72336;BME280;65062;48.446;8.834;2023-02-20T12:09:42;98392.16;;;22.89;26.40
72336;BME280;65062;48.446;8.834;2023-02-20T12:12:44;98382.44;;;23.16;25.30
72336;BME280;65062;48.446;8.834;2023-02-20T12:19:37;98374.41;;;25.52;22.58
72336;BME280;65062;48.446;8.834;2023-02-20T12:22:44;98368.63;;;24.65;22.86
72336;BME280;65062;48.446;8.834;2023-02-20T12:25:53;98351.75;;;26.56;21.74
72336;BME280;65062;48.446;8.834;2023-02-20T12:35:27;98337.72;;;25.62;21.91
72336;BME280;65062;48.446;8.834;2023-02-20T13:01:33;98287.56;;;27.25;20.17
72336;BME280;65062;48.446;8.834;2023-02-20T13:04:43;98261.16;;;30.00;17.71
72336;BME280;65062;48.446;8.834;2023-02-20T13:07:55;98263.09;;;30.69;16.78
72336;BME280;65062;48.446;8.834;2023-02-20T13:10:58;98262.19;;;29.15;16.99
72336;BME280;65062;48.446;8.834;2023-02-20T13:14:24;98245.09;;;29.25;17.18
72336;BME280;65062;48.446;8.834;2023-02-20T13:17:30;98235.56;;;30.35;16.78
72336;BME280;65062;48.446;8.834;2023-02-20T13:20:46;98223.53;;;31.05;15.87
72336;BME280;65062;48.446;8.834;2023-02-20T13:23:48;98216.59;;;32.30;14.11
72336;BME280;65062;48.446;8.834;2023-02-20T13:26:57;98219.66;;;32.14;13.94
72336;BME280;65062;48.446;8.834;2023-02-20T13:30:17;98218.03;;;29.95;16.01
72336;BME280;65062;48.446;8.834;2023-02-20T13:33:24;98227.53;;;29.51;16.10
72336;BME280;65062;48.446;8.834;2023-02-20T13:42:32;98233.88;;;32.20;13.69
72336;BME280;65062;48.446;8.834;2023-02-20T13:45:41;98225.19;;;32.98;12.96
72336;BME280;65062;48.446;8.834;2023-02-20T13:48:46;98213.50;;;32.89;12.91
72336;BME280;65062;48.446;8.834;2023-02-20T13:51:47;98203.50;;;32.09;13.79
72336;BME280;65062;48.446;8.834;2023-02-20T13:54:47;98208.47;;;30.72;13.97
72336;BME280;65062;48.446;8.834;2023-02-20T14:00:54;98215.78;;;29.84;14.68
72336;BME280;65062;48.446;8.834;2023-02-20T14:04:03;98208.31;;;31.23;14.03
72336;BME280;65062;48.446;8.834;2023-02-20T14:07:04;98211.25;;;30.35;14.35
72336;BME280;65062;48.446;8.834;2023-02-20T14:10:24;98197.66;;;31.94;13.12
72336;BME280;65062;48.446;8.834;2023-02-20T14:13:26;98179.06;;;32.67;12.96
72336;BME280;65062;48.446;8.834;2023-02-20T14:16:32;98172.13;;;32.31;12.22
72336;BME280;65062;48.446;8.834;2023-02-20T14:19:42;98179.38;;;31.10;13.23
72336;BME280;65062;48.446;8.834;2023-02-20T14:22:43;98196.13;;;28.61;15.91
72336;BME280;65062;48.446;8.834;2023-02-20T14:26:20;98180.22;;;27.43;16.00
72336;BME280;65062;48.446;8.834;2023-02-20T14:29:30;98171.06;;;26.45;17.92
72336;BME280;65062;48.446;8.834;2023-02-20T14:32:31;98163.75;;;26.86;17.98
72336;BME280;65062;48.446;8.834;2023-02-20T14:35:45;98166.44;;;26.91;16.62
72336;BME280;65062;48.446;8.834;2023-02-20T14:38:59;98158.91;;;27.57;15.19
72336;BME280;65062;48.446;8.834;2023-02-20T14:42:04;98149.13;;;27.17;15.59
72336;BME280;65062;48.446;8.834;2023-02-20T14:45:11;98131.63;;;29.63;14.51
72336;BME280;65062;48.446;8.834;2023-02-20T14:48:33;98133.81;;;30.76;11.90
72336;BME280;65062;48.446;8.834;2023-02-20T14:51:36;98152.00;;;27.84;13.54
72336;BME280;65062;48.446;8.834;2023-02-20T14:54:38;98153.16;;;28.12;13.05
72336;BME280;65062;48.446;8.834;2023-02-20T14:57:39;98148.13;;;29.38;12.71
72336;BME280;65062;48.446;8.834;2023-02-20T15:00:41;98156.41;;;28.71;12.94
72336;BME280;65062;48.446;8.834;2023-02-20T15:03:42;98156.50;;;29.55;13.06
72336;BME280;65062;48.446;8.834;2023-02-20T15:06:46;98145.75;;;29.92;12.88
72336;BME280;65062;48.446;8.834;2023-02-20T15:09:50;98144.09;;;29.78;12.95
72336;BME280;65062;48.446;8.834;2023-02-20T15:12:56;98134.31;;;29.63;12.96
72336;BME280;65062;48.446;8.834;2023-02-20T15:16:20;98151.03;;;30.48;13.38
72336;BME280;65062;48.446;8.834;2023-02-20T15:19:34;98136.88;;;28.27;15.24
72336;BME280;65062;48.446;8.834;2023-02-20T15:22:35;98142.47;;;28.35;14.81
72336;BME280;65062;48.446;8.834;2023-02-20T15:25:40;98143.72;;;27.32;15.40
72336;BME280;65062;48.446;8.834;2023-02-20T15:28:40;98127.28;;;26.55;17.08
72336;BME280;65062;48.446;8.834;2023-02-20T15:31:41;98132.66;;;24.93;18.44
72336;BME280;65062;48.446;8.834;2023-02-20T15:34:41;98130.00;;;23.88;18.97
72336;BME280;65062;48.446;8.834;2023-02-20T15:37:42;98140.16;;;24.13;18.87
72336;BME280;65062;48.446;8.834;2023-02-20T15:40:43;98130.47;;;23.80;20.43
72336;BME280;65062;48.446;8.834;2023-02-20T15:43:43;98134.69;;;23.02;22.38
72336;BME280;65062;48.446;8.834;2023-02-20T15:46:44;98140.88;;;22.64;22.04
72336;BME280;65062;48.446;8.834;2023-02-20T15:49:44;98126.41;;;22.43;23.55
72336;BME280;65062;48.446;8.834;2023-02-20T15:52:45;98116.09;;;19.93;27.44
72336;BME280;65062;48.446;8.834;2023-02-20T15:55:49;98122.00;;;18.58;29.97
72336;BME280;65062;48.446;8.834;2023-02-20T15:58:49;98128.84;;;17.74;30.84
72336;BME280;65062;48.446;8.834;2023-02-20T16:01:50;98126.00;;;16.24;35.31
72336;BME280;65062;48.446;8.834;2023-02-20T16:04:51;98124.88;;;15.21;37.28
72336;BME280;65062;48.446;8.834;2023-02-20T16:07:52;98127.97;;;14.36;39.91
72336;BME280;65062;48.446;8.834;2023-02-20T16:10:53;98133.09;;;13.96;40.66
72336;BME280;65062;48.446;8.834;2023-02-20T16:13:57;98127.53;;;13.84;39.22
72336;BME280;65062;48.446;8.834;2023-02-20T16:16:58;98119.63;;;13.00;41.63
72336;BME280;65062;48.446;8.834;2023-02-20T16:19:59;98128.22;;;12.58;43.42
72336;BME280;65062;48.446;8.834;2023-02-20T16:22:59;98117.97;;;12.20;45.02
72336;BME280;65062;48.446;8.834;2023-02-20T16:26:00;98117.75;;;11.78;46.02
72336;BME280;65062;48.446;8.834;2023-02-20T16:29:07;98116.19;;;11.38;47.37
72336;BME280;65062;48.446;8.834;2023-02-20T16:32:13;98118.50;;;11.19;48.59
72336;BME280;65062;48.446;8.834;2023-02-20T16:35:14;98103.50;;;10.82;49.85
72336;BME280;65062;48.446;8.834;2023-02-20T16:38:15;98115.28;;;10.39;51.94
72336;BME280;65062;48.446;8.834;2023-02-20T16:41:16;98116.19;;;10.08;52.02
72336;BME280;65062;48.446;8.834;2023-02-20T16:44:22;98113.94;;;9.73;52.43
72336;BME280;65062;48.446;8.834;2023-02-20T16:47:26;98107.06;;;9.40;53.64
72336;BME280;65062;48.446;8.834;2023-02-20T16:50:28;98117.00;;;9.12;53.84
72336;BME280;65062;48.446;8.834;2023-02-20T16:53:29;98111.25;;;8.93;56.47
72336;BME280;65062;48.446;8.834;2023-02-20T16:56:31;98120.50;;;8.71;56.07
72336;BME280;65062;48.446;8.834;2023-02-20T16:59:31;98118.91;;;8.36;57.25
72336;BME280;65062;48.446;8.834;2023-02-20T17:02:32;98112.38;;;8.07;58.47
72336;BME280;65062;48.446;8.834;2023-02-20T17:05:34;98110.22;;;8.02;58.34
72336;BME280;65062;48.446;8.834;2023-02-20T17:08:35;98107.00;;;7.83;59.51
72336;BME280;65062;48.446;8.834;2023-02-20T17:11:35;98109.50;;;7.67;60.39
72336;BME280;65062;48.446;8.834;2023-02-20T17:14:35;98107.59;;;7.51;61.04
72336;BME280;65062;48.446;8.834;2023-02-20T17:17:36;98102.91;;;7.37;61.39
72336;BME280;65062;48.446;8.834;2023-02-20T17:20:37;98108.28;;;7.18;59.95
72336;BME280;65062;48.446;8.834;2023-02-20T17:23:38;98106.13;;;7.14;61.42
72336;BME280;65062;48.446;8.834;2023-02-20T17:26:38;98098.47;;;6.95;61.34
72336;BME280;65062;48.446;8.834;2023-02-20T17:29:41;98101.28;;;6.84;61.59
72336;BME280;65062;48.446;8.834;2023-02-20T17:32:42;98100.06;;;6.78;63.05
72336;BME280;65062;48.446;8.834;2023-02-20T17:35:42;98110.00;;;6.65;62.66
72336;BME280;65062;48.446;8.834;2023-02-20T17:38:44;98101.72;;;6.79;61.91
72336;BME280;65062;48.446;8.834;2023-02-20T17:41:47;98115.56;;;6.53;62.22
72336;BME280;65062;48.446;8.834;2023-02-20T17:44:48;98113.41;;;6.48;63.36
72336;BME280;65062;48.446;8.834;2023-02-20T17:47:51;98107.88;;;6.33;62.63
72336;BME280;65062;48.446;8.834;2023-02-20T17:50:51;98107.28;;;6.03;63.03
72336;BME280;65062;48.446;8.834;2023-02-20T17:53:51;98101.44;;;6.01;64.04
72336;BME280;65062;48.446;8.834;2023-02-20T17:56:52;98104.75;;;5.93;64.91